sim
Sign-in with your pilot id or email,
or register
Callsign
Passwort

Schedule Details

Flight Number: DLH2283
Departure: Brussels Airport (EBBR) at 08:10
Arrival: Munich Airport (EDDM) at 09:25
Route: Lufthansa Passenger Schedule. Enter filed route here before submitting Pirep.

Weather Information
Getting current METAR information for EBBR 260820Z 30012KT 9999 SCT011 SCT035 11/10 Q1000 TEMPO 4000 SHRA SCT007 BKN012
Getting current METAR information for EDDM 260820Z 27015KT 9999 SCT019 BKN028 08/05 Q1000 TEMPO 26015G25KT

Schedule Frequency

Route Map